createdAt,value
2023-02-17T00:00:06.396Z,6.14
2023-02-17T00:02:32.769Z,6.08
2023-02-17T00:04:59.091Z,6.08
2023-02-17T00:07:25.429Z,5.90
2023-02-17T00:09:51.732Z,5.98
2023-02-17T00:12:18.022Z,6.05
2023-02-17T00:14:44.320Z,5.96
2023-02-17T00:17:10.619Z,6.06
2023-02-17T00:19:36.914Z,5.98
2023-02-17T00:22:03.228Z,5.84
2023-02-17T00:24:31.076Z,5.99
2023-02-17T00:26:57.445Z,5.87
2023-02-17T00:29:23.842Z,5.82
2023-02-17T00:31:52.112Z,5.89
2023-02-17T00:34:18.752Z,5.84
2023-02-17T00:36:45.349Z,5.73
2023-02-17T00:39:13.786Z,5.78
2023-02-17T00:41:40.092Z,5.82
2023-02-17T00:44:06.395Z,5.76
2023-02-17T00:46:32.757Z,5.78
2023-02-17T00:48:59.082Z,5.71
2023-02-17T00:51:25.634Z,5.76
2023-02-17T00:53:52.141Z,5.80
2023-02-17T00:56:18.520Z,5.89
2023-02-17T00:58:46.132Z,5.77
2023-02-17T01:01:12.496Z,5.77
2023-02-17T01:03:40.806Z,5.73
2023-02-17T01:06:08.199Z,5.57
2023-02-17T01:08:34.548Z,5.69
2023-02-17T01:11:01.105Z,5.71
2023-02-17T01:13:27.418Z,5.82
2023-02-17T01:15:54.024Z,5.87
2023-02-17T01:18:22.105Z,5.78
2023-02-17T01:20:48.420Z,5.93
2023-02-17T01:23:15.173Z,5.78
2023-02-17T01:25:42.713Z,5.87
2023-02-17T01:28:10.769Z,5.89
2023-02-17T01:30:37.346Z,5.91
2023-02-17T01:33:03.656Z,6.00
2023-02-17T01:35:29.950Z,6.11
2023-02-17T01:37:56.269Z,5.94
2023-02-17T01:40:22.746Z,6.02
2023-02-17T01:42:49.025Z,5.93
2023-02-17T01:45:18.430Z,5.98
2023-02-17T01:47:47.763Z,5.94
2023-02-17T01:50:14.898Z,5.96
2023-02-17T01:52:41.677Z,5.90
2023-02-17T01:55:10.782Z,5.90
2023-02-17T01:57:38.174Z,5.89
2023-02-17T02:00:05.708Z,6.09
2023-02-17T02:02:32.434Z,6.03
2023-02-17T02:04:58.899Z,6.06
2023-02-17T02:07:35.692Z,6.04
2023-02-17T02:10:02.057Z,6.05
2023-02-17T02:12:33.236Z,5.97
2023-02-17T02:15:01.882Z,6.07
2023-02-17T02:17:35.309Z,6.15
2023-02-17T02:20:08.462Z,6.18
2023-02-17T02:22:43.554Z,6.22
2023-02-17T02:25:12.963Z,6.16
2023-02-17T02:27:42.416Z,6.10
2023-02-17T02:30:17.516Z,6.08
2023-02-17T02:32:48.562Z,6.01
2023-02-17T02:35:20.876Z,6.16
2023-02-17T02:37:57.014Z,6.13
2023-02-17T02:40:27.047Z,6.13
2023-02-17T02:42:54.457Z,6.09
2023-02-17T02:45:21.471Z,6.18
2023-02-17T02:47:54.756Z,6.14
2023-02-17T02:50:36.439Z,6.08
2023-02-17T02:53:08.835Z,6.09
2023-02-17T02:55:35.080Z,6.11
2023-02-17T02:58:20.304Z,6.15
2023-02-17T03:01:05.531Z,6.11
2023-02-17T03:03:51.952Z,6.03
2023-02-17T03:06:26.162Z,6.05
2023-02-17T03:09:00.940Z,6.03
2023-02-17T03:11:33.082Z,5.83
2023-02-17T03:14:03.424Z,6.07
2023-02-17T03:16:29.835Z,6.01
2023-02-17T03:18:56.154Z,5.98
2023-02-17T03:21:23.280Z,6.11
2023-02-17T03:23:49.586Z,6.19
2023-02-17T03:26:15.964Z,6.24
2023-02-17T03:28:42.286Z,6.22
2023-02-17T03:31:08.620Z,6.11
2023-02-17T03:33:34.930Z,6.31
2023-02-17T03:36:01.308Z,6.25
2023-02-17T03:38:27.595Z,6.25
2023-02-17T03:40:53.884Z,6.23
2023-02-17T03:43:20.210Z,6.22
2023-02-17T03:45:46.589Z,6.05
2023-02-17T03:48:12.910Z,6.28
2023-02-17T03:50:39.220Z,6.24
2023-02-17T03:53:05.712Z,6.23
2023-02-17T03:55:32.026Z,6.27
2023-02-17T03:57:58.350Z,6.23
2023-02-17T04:00:24.743Z,6.32
2023-02-17T04:02:51.109Z,6.26
2023-02-17T04:05:17.475Z,6.18
2023-02-17T04:07:43.808Z,6.29
2023-02-17T04:10:10.269Z,6.23
2023-02-17T04:12:36.637Z,6.29
2023-02-17T04:15:03.108Z,6.31
2023-02-17T04:17:29.371Z,6.26
2023-02-17T04:19:55.671Z,6.32
2023-02-17T04:22:22.015Z,6.14
2023-02-17T04:24:48.280Z,6.34
2023-02-17T04:27:14.626Z,6.37
2023-02-17T04:29:40.965Z,6.42
2023-02-17T04:32:07.339Z,6.37
2023-02-17T04:34:33.710Z,6.39
2023-02-17T04:37:00.019Z,6.40
2023-02-17T04:39:26.293Z,6.33
2023-02-17T04:41:52.997Z,6.35
2023-02-17T04:44:19.308Z,6.42
2023-02-17T04:46:45.611Z,6.58
2023-02-17T04:49:11.923Z,6.38
2023-02-17T04:51:38.214Z,6.51
2023-02-17T04:54:04.623Z,6.62
2023-02-17T04:56:30.971Z,6.48
2023-02-17T04:58:57.251Z,6.33
2023-02-17T05:01:23.576Z,6.38
2023-02-17T05:03:49.908Z,6.43
2023-02-17T05:06:16.172Z,6.51
2023-02-17T05:08:42.507Z,6.54
2023-02-17T05:11:08.931Z,6.46
2023-02-17T05:13:35.244Z,6.35
2023-02-17T05:16:01.552Z,6.52
2023-02-17T05:18:27.922Z,6.42
2023-02-17T05:20:54.289Z,6.55
2023-02-17T05:23:20.617Z,6.48
2023-02-17T05:25:46.943Z,6.32
2023-02-17T05:28:13.219Z,6.38
2023-02-17T05:30:39.555Z,6.44
2023-02-17T05:33:05.902Z,6.46
2023-02-17T05:35:35.083Z,6.46
2023-02-17T05:38:01.492Z,6.60
2023-02-17T05:40:27.814Z,6.49
2023-02-17T05:42:54.094Z,6.45
2023-02-17T05:45:20.398Z,6.52
2023-02-17T05:47:46.785Z,6.45
2023-02-17T05:50:13.101Z,6.43
2023-02-17T05:52:39.423Z,6.27
2023-02-17T05:55:05.941Z,6.52
2023-02-17T05:57:32.417Z,6.51
2023-02-17T05:59:58.717Z,6.52
2023-02-17T06:02:25.106Z,6.41
2023-02-17T06:04:51.494Z,6.48
2023-02-17T06:07:17.916Z,6.55
2023-02-17T06:09:46.449Z,6.60
2023-02-17T06:12:13.537Z,6.64
2023-02-17T06:14:39.861Z,6.58
2023-02-17T06:17:06.207Z,6.58
2023-02-17T06:19:32.511Z,6.64
2023-02-17T06:21:58.868Z,6.45
2023-02-17T06:24:25.387Z,6.70
2023-02-17T06:26:51.681Z,6.62
2023-02-17T06:29:18.003Z,6.59
2023-02-17T06:31:44.399Z,6.45
2023-02-17T06:34:10.805Z,6.53
2023-02-17T06:36:37.076Z,6.65
2023-02-17T06:39:03.577Z,6.63
2023-02-17T06:41:29.915Z,6.52
2023-02-17T06:43:56.243Z,6.52
2023-02-17T06:46:22.620Z,6.54
2023-02-17T06:48:48.937Z,6.53
2023-02-17T06:51:15.325Z,6.60
2023-02-17T06:53:41.708Z,6.63
2023-02-17T06:56:08.142Z,6.74
2023-02-17T06:58:36.495Z,6.59
2023-02-17T07:01:03.015Z,6.60
2023-02-17T07:03:29.589Z,6.71
2023-02-17T07:05:59.338Z,6.72
2023-02-17T07:08:25.758Z,6.74
2023-02-17T07:10:52.172Z,6.84
2023-02-17T07:13:18.530Z,6.77
2023-02-17T07:15:44.936Z,6.86
2023-02-17T07:18:11.236Z,6.80
2023-02-17T07:20:39.254Z,6.76
2023-02-17T07:23:05.854Z,6.92
2023-02-17T07:25:32.158Z,6.79
2023-02-17T07:27:59.904Z,6.83
2023-02-17T07:30:26.313Z,6.92
2023-02-17T07:32:52.628Z,7.00
2023-02-17T07:35:18.933Z,7.05
2023-02-17T07:37:45.270Z,6.94
2023-02-17T07:40:11.887Z,6.90
2023-02-17T07:42:38.210Z,6.95
2023-02-17T07:45:04.872Z,7.12
2023-02-17T07:47:32.033Z,7.16
2023-02-17T07:49:58.349Z,7.00
2023-02-17T07:52:24.685Z,7.08
2023-02-17T07:54:51.000Z,7.10
2023-02-17T07:57:17.651Z,7.13
2023-02-17T07:59:45.854Z,7.03
2023-02-17T08:02:12.424Z,7.01
2023-02-17T08:04:38.723Z,7.06
2023-02-17T08:07:05.113Z,7.08
2023-02-17T08:09:49.771Z,7.10
2023-02-17T08:12:36.108Z,7.12
2023-02-17T08:15:02.530Z,7.08
2023-02-17T08:17:29.125Z,7.17
2023-02-17T08:19:55.861Z,7.18
2023-02-17T08:22:22.515Z,7.08
2023-02-17T08:24:49.127Z,7.22
2023-02-17T08:27:15.958Z,7.33
2023-02-17T08:29:42.401Z,7.16
2023-02-17T08:32:08.886Z,7.34
2023-02-17T08:34:35.454Z,7.31
2023-02-17T08:37:02.675Z,7.26
2023-02-17T08:39:29.093Z,7.26
2023-02-17T08:41:56.075Z,7.16
2023-02-17T08:44:22.586Z,7.30
2023-02-17T08:46:49.725Z,7.26
2023-02-17T08:49:17.419Z,7.38
2023-02-17T08:51:44.111Z,7.32
2023-02-17T08:54:11.029Z,7.34
2023-02-17T08:56:39.055Z,7.21
2023-02-17T08:59:06.261Z,7.36
2023-02-17T09:01:32.747Z,7.45
2023-02-17T09:04:00.272Z,7.28
2023-02-17T09:06:33.672Z,7.35
2023-02-17T09:08:59.994Z,7.57
2023-02-17T09:11:26.323Z,7.53
2023-02-17T09:13:52.663Z,7.49
2023-02-17T09:16:20.782Z,7.51
2023-02-17T09:18:47.217Z,7.42
2023-02-17T09:21:13.801Z,7.59
2023-02-17T09:23:40.791Z,7.51
2023-02-17T09:26:08.827Z,7.58
2023-02-17T09:28:35.508Z,7.66
2023-02-17T09:31:16.789Z,7.61
2023-02-17T09:33:43.382Z,7.82
2023-02-17T09:36:12.228Z,7.89
2023-02-17T09:38:39.331Z,7.71
2023-02-17T09:41:21.220Z,7.74
2023-02-17T09:43:47.672Z,7.60
2023-02-17T09:46:20.238Z,7.65
2023-02-17T09:48:48.067Z,7.63
2023-02-17T09:51:19.792Z,7.59
2023-02-17T09:53:55.460Z,7.71
2023-02-17T09:56:24.344Z,7.53
2023-02-17T09:58:53.484Z,7.59
2023-02-17T10:01:21.192Z,7.63
2023-02-17T10:03:54.353Z,7.60
2023-02-17T10:06:26.841Z,7.64
2023-02-17T10:08:55.150Z,7.66
2023-02-17T10:11:21.641Z,7.56
2023-02-17T10:13:47.969Z,7.60
2023-02-17T10:16:21.271Z,7.59
2023-02-17T10:18:52.414Z,7.49
2023-02-17T10:21:23.759Z,7.60
2023-02-17T10:23:51.306Z,7.60
2023-02-17T10:26:26.593Z,7.70
2023-02-17T10:28:59.050Z,7.66
2023-02-17T10:31:57.906Z,7.54
2023-02-17T10:34:37.333Z,7.60
2023-02-17T10:37:12.896Z,7.62
2023-02-17T10:39:42.243Z,7.71
2023-02-17T10:42:16.834Z,7.76
2023-02-17T10:44:44.061Z,7.60
2023-02-17T10:47:10.812Z,7.51
2023-02-17T10:49:39.882Z,7.74
2023-02-17T10:52:20.432Z,7.71
2023-02-17T10:54:50.573Z,7.75
2023-02-17T10:57:17.760Z,7.75
2023-02-17T10:59:45.312Z,7.86
2023-02-17T11:02:30.522Z,7.79
2023-02-17T11:04:59.750Z,7.70
2023-02-17T11:07:46.365Z,7.71
2023-02-17T11:10:32.427Z,7.89
2023-02-17T11:12:59.862Z,7.87
2023-02-17T11:15:27.957Z,7.78
2023-02-17T11:17:54.956Z,7.78
2023-02-17T11:20:21.236Z,7.86
2023-02-17T11:22:49.128Z,7.85
2023-02-17T11:25:15.403Z,8.00
2023-02-17T11:27:49.262Z,7.93
2023-02-17T11:30:16.076Z,8.05
2023-02-17T11:32:42.458Z,7.98
2023-02-17T11:35:20.748Z,7.88
2023-02-17T11:37:47.056Z,8.00
2023-02-17T11:40:26.984Z,7.95
2023-02-17T11:42:57.667Z,8.16
2023-02-17T11:45:26.099Z,8.16
2023-02-17T11:48:08.128Z,8.06
2023-02-17T11:50:42.119Z,8.26
2023-02-17T11:53:17.800Z,8.35
2023-02-17T11:55:53.141Z,8.28
2023-02-17T11:58:31.748Z,8.21
2023-02-17T12:01:18.269Z,8.24
2023-02-17T12:03:54.174Z,8.32
2023-02-17T12:06:29.466Z,8.25
2023-02-17T12:09:10.747Z,8.43
2023-02-17T12:11:42.969Z,8.46
2023-02-17T12:14:10.740Z,8.29
2023-02-17T12:16:37.163Z,8.40
2023-02-17T12:19:06.386Z,8.53
2023-02-17T12:21:52.989Z,8.43
2023-02-17T12:24:30.243Z,8.53
2023-02-17T12:27:04.275Z,8.70
2023-02-17T12:29:41.392Z,8.81
2023-02-17T12:32:18.687Z,8.69
2023-02-17T12:34:52.777Z,8.86
2023-02-17T12:37:21.802Z,8.85
2023-02-17T12:39:54.143Z,8.93
2023-02-17T12:42:25.200Z,8.82
2023-02-17T12:44:56.571Z,8.88
2023-02-17T12:47:28.867Z,9.07
2023-02-17T12:50:00.912Z,9.07
2023-02-17T12:52:32.927Z,9.01
2023-02-17T12:55:04.752Z,9.00
2023-02-17T12:57:46.146Z,8.94
2023-02-17T13:00:20.127Z,9.17
2023-02-17T13:02:47.017Z,9.04
2023-02-17T13:05:25.261Z,9.26
2023-02-17T13:07:56.605Z,9.37
2023-02-17T13:10:25.998Z,9.34
2023-02-17T13:12:57.198Z,9.25
2023-02-17T13:15:43.459Z,9.10
2023-02-17T13:18:15.033Z,9.23
2023-02-17T13:20:56.197Z,9.34
2023-02-17T13:23:27.835Z,9.49
2023-02-17T13:26:14.585Z,9.43
2023-02-17T13:28:41.341Z,9.28
2023-02-17T13:31:20.095Z,9.51
2023-02-17T13:33:48.394Z,9.59
2023-02-17T13:36:16.976Z,9.48
2023-02-17T13:38:52.537Z,9.49
2023-02-17T13:41:18.877Z,9.52
2023-02-17T13:43:45.194Z,9.57
2023-02-17T13:46:16.166Z,9.28
2023-02-17T13:48:42.480Z,9.49
2023-02-17T13:51:23.982Z,9.53
2023-02-17T13:53:50.677Z,9.60
2023-02-17T13:56:24.944Z,9.58
2023-02-17T13:58:51.268Z,9.70
2023-02-17T14:01:19.203Z,9.59
2023-02-17T14:03:47.396Z,9.65
2023-02-17T14:06:23.171Z,9.60
2023-02-17T14:08:49.682Z,9.45
2023-02-17T14:11:21.333Z,9.39
2023-02-17T14:13:48.506Z,9.62
2023-02-17T14:16:27.743Z,9.55
2023-02-17T14:19:08.170Z,9.56
2023-02-17T14:21:35.379Z,9.63
2023-02-17T14:24:01.768Z,9.59
2023-02-17T14:26:46.415Z,9.38
2023-02-17T14:29:13.391Z,9.28
2023-02-17T14:31:41.161Z,9.22
2023-02-17T14:34:08.668Z,9.27
2023-02-17T14:36:36.431Z,9.23
2023-02-17T14:39:04.533Z,9.36
2023-02-17T14:41:30.863Z,9.27
2023-02-17T14:43:57.243Z,9.25
2023-02-17T14:46:23.636Z,9.21
2023-02-17T14:48:50.557Z,9.27
2023-02-17T14:51:21.453Z,9.31
2023-02-17T14:53:48.576Z,9.29
2023-02-17T14:56:27.039Z,9.14
2023-02-17T14:58:53.491Z,9.19
2023-02-17T15:01:21.104Z,9.11
2023-02-17T15:03:47.527Z,9.10
2023-02-17T15:06:18.196Z,9.15
2023-02-17T15:08:45.899Z,9.25
2023-02-17T15:11:17.666Z,9.23
2023-02-17T15:13:44.042Z,9.25
2023-02-17T15:16:10.747Z,9.18
2023-02-17T15:18:37.398Z,9.17
2023-02-17T15:21:15.842Z,9.24
2023-02-17T15:23:42.193Z,9.21
2023-02-17T15:26:10.354Z,9.33
2023-02-17T15:28:36.767Z,9.39
2023-02-17T15:31:04.138Z,9.22
2023-02-17T15:33:30.576Z,9.40
2023-02-17T15:35:56.856Z,9.47
2023-02-17T15:38:23.978Z,9.50
2023-02-17T15:40:51.045Z,9.40
2023-02-17T15:43:19.575Z,9.41
2023-02-17T15:45:46.274Z,9.56
2023-02-17T15:48:17.864Z,9.27
2023-02-17T15:50:44.348Z,9.61
2023-02-17T15:53:10.681Z,9.55
2023-02-17T15:55:38.901Z,9.56
2023-02-17T15:58:06.465Z,9.57
2023-02-17T16:00:34.368Z,9.51
2023-02-17T16:03:00.724Z,9.60
2023-02-17T16:05:28.709Z,9.64
2023-02-17T16:07:55.184Z,9.61
2023-02-17T16:10:23.316Z,9.33
2023-02-17T16:12:50.735Z,9.45
2023-02-17T16:15:19.050Z,9.41
2023-02-17T16:17:47.551Z,9.43
2023-02-17T16:20:16.556Z,9.28
2023-02-17T16:22:43.486Z,9.43
2023-02-17T16:25:09.888Z,9.43
2023-02-17T16:27:36.780Z,9.54
2023-02-17T16:30:13.958Z,9.45
2023-02-17T16:32:40.457Z,9.48
2023-02-17T16:35:07.013Z,9.43
2023-02-17T16:37:33.539Z,9.43
2023-02-17T16:40:00.122Z,9.48
2023-02-17T16:42:26.501Z,9.51
2023-02-17T16:44:52.834Z,9.38
2023-02-17T16:47:20.846Z,9.27
2023-02-17T16:49:47.466Z,9.37
2023-02-17T16:52:22.573Z,9.34
2023-02-17T16:54:48.858Z,9.42
2023-02-17T16:57:18.481Z,9.34
2023-02-17T16:59:45.127Z,9.53
2023-02-17T17:02:12.020Z,9.52
2023-02-17T17:04:38.455Z,9.50
2023-02-17T17:07:04.848Z,9.51
2023-02-17T17:09:31.266Z,9.60
2023-02-17T17:11:57.784Z,9.42
2023-02-17T17:14:24.711Z,9.33
2023-02-17T17:16:52.220Z,9.48
2023-02-17T17:19:18.560Z,9.53
2023-02-17T17:21:44.941Z,9.52
2023-02-17T17:24:11.256Z,9.57
2023-02-17T17:26:39.819Z,9.72
2023-02-17T17:29:07.222Z,9.58
2023-02-17T17:31:33.679Z,9.58
2023-02-17T17:34:00.027Z,9.39
2023-02-17T17:36:52.787Z,9.35
2023-02-17T17:39:20.450Z,9.38
2023-02-17T17:41:47.219Z,9.22
2023-02-17T17:44:13.910Z,9.13
2023-02-17T17:46:40.581Z,9.01
2023-02-17T17:49:10.144Z,8.94
2023-02-17T17:51:37.265Z,8.91
2023-02-17T17:54:05.076Z,9.11
2023-02-17T17:56:33.046Z,8.76
2023-02-17T17:59:00.884Z,8.61
2023-02-17T18:01:27.655Z,8.51
2023-02-17T18:03:54.492Z,8.56
2023-02-17T18:06:34.302Z,8.41
2023-02-17T18:09:02.363Z,8.41
2023-02-17T18:11:28.998Z,8.30
2023-02-17T18:13:58.154Z,8.38
2023-02-17T18:16:27.124Z,8.42
2023-02-17T18:18:54.543Z,8.31
2023-02-17T18:21:20.917Z,8.20
2023-02-17T18:23:48.019Z,8.12
2023-02-17T18:26:14.885Z,7.92
2023-02-17T18:28:42.346Z,8.04
2023-02-17T18:31:13.251Z,7.79
2023-02-17T18:33:39.974Z,7.82
2023-02-17T18:36:10.271Z,7.70
2023-02-17T18:38:36.820Z,7.91
2023-02-17T18:41:03.380Z,7.76
2023-02-17T18:43:29.767Z,7.81
2023-02-17T18:45:56.130Z,7.83
2023-02-17T18:48:22.437Z,7.94
2023-02-17T18:50:50.431Z,7.82
2023-02-17T18:53:17.588Z,7.91
2023-02-17T18:55:44.413Z,7.81
2023-02-17T18:58:12.402Z,7.72
2023-02-17T19:00:38.859Z,7.66
2023-02-17T19:03:05.169Z,7.51
2023-02-17T19:05:31.597Z,7.52
2023-02-17T19:07:58.396Z,7.60
2023-02-17T19:10:24.726Z,7.44
2023-02-17T19:12:51.104Z,7.39
2023-02-17T19:15:20.754Z,7.49
2023-02-17T19:17:48.526Z,7.34
2023-02-17T19:20:16.859Z,7.57
2023-02-17T19:22:43.220Z,7.50
2023-02-17T19:25:09.660Z,7.35
2023-02-17T19:27:38.142Z,7.48
2023-02-17T19:30:04.808Z,7.32
2023-02-17T19:32:31.249Z,7.32
2023-02-17T19:34:57.771Z,7.23
2023-02-17T19:37:24.136Z,7.47
2023-02-17T19:39:50.506Z,7.44
2023-02-17T19:42:16.944Z,7.30
2023-02-17T19:44:43.313Z,7.34
2023-02-17T19:47:09.992Z,7.14
2023-02-17T19:49:36.447Z,7.12
2023-02-17T19:52:02.767Z,7.24
2023-02-17T19:54:29.205Z,7.24
2023-02-17T19:56:55.546Z,7.17
2023-02-17T19:59:21.881Z,7.14
2023-02-17T20:01:48.204Z,7.14
2023-02-17T20:04:14.972Z,7.13
2023-02-17T20:06:42.945Z,7.15
2023-02-17T20:09:11.280Z,7.12
2023-02-17T20:11:37.934Z,7.10
2023-02-17T20:14:04.507Z,7.11
2023-02-17T20:16:31.018Z,7.04
2023-02-17T20:18:59.539Z,7.00
2023-02-17T20:21:28.496Z,7.03
2023-02-17T20:23:55.058Z,7.08
2023-02-17T20:26:26.272Z,7.08
2023-02-17T20:28:52.718Z,6.94
2023-02-17T20:31:19.896Z,6.78
2023-02-17T20:33:46.696Z,6.89
2023-02-17T20:36:13.153Z,6.72
2023-02-17T20:38:40.491Z,6.68
2023-02-17T20:41:08.131Z,6.76
2023-02-17T20:43:35.458Z,6.80
2023-02-17T20:46:01.819Z,6.78
2023-02-17T20:48:28.248Z,6.91
2023-02-17T20:50:55.169Z,6.89
2023-02-17T20:53:21.497Z,6.64
2023-02-17T20:55:47.922Z,6.66
2023-02-17T20:58:14.477Z,6.48
2023-02-17T21:00:40.831Z,6.57
2023-02-17T21:03:07.290Z,6.60
2023-02-17T21:05:33.725Z,6.67
2023-02-17T21:08:00.040Z,6.60
2023-02-17T21:10:28.779Z,6.57
2023-02-17T21:12:55.124Z,6.65
2023-02-17T21:15:21.972Z,6.57
2023-02-17T21:17:48.952Z,6.73
2023-02-17T21:20:16.851Z,6.74
2023-02-17T21:22:43.232Z,6.70
2023-02-17T21:25:09.673Z,6.73
2023-02-17T21:27:36.319Z,6.61
2023-02-17T21:30:03.565Z,6.78
2023-02-17T21:32:29.898Z,6.63
2023-02-17T21:34:56.266Z,6.47
2023-02-17T21:37:22.672Z,6.59
2023-02-17T21:39:49.455Z,6.62
2023-02-17T21:42:35.903Z,6.56
2023-02-17T21:45:02.373Z,6.57
2023-02-17T21:47:28.663Z,6.64
2023-02-17T21:49:55.140Z,6.63
2023-02-17T21:52:21.996Z,6.61
2023-02-17T21:54:48.336Z,6.70
2023-02-17T21:57:14.646Z,6.54
2023-02-17T21:59:41.649Z,6.54
2023-02-17T22:02:10.356Z,6.62
2023-02-17T22:04:36.651Z,6.60
2023-02-17T22:07:03.007Z,6.67
2023-02-17T22:09:29.311Z,6.73
2023-02-17T22:11:55.710Z,6.61
2023-02-17T22:14:22.766Z,6.55
2023-02-17T22:16:49.270Z,6.70
2023-02-17T22:19:17.219Z,6.59
2023-02-17T22:21:44.368Z,6.66
2023-02-17T22:24:10.860Z,6.73
2023-02-17T22:26:37.589Z,6.62
2023-02-17T22:29:04.448Z,6.58
2023-02-17T22:31:31.356Z,6.63
2023-02-17T22:33:58.743Z,6.44
2023-02-17T22:36:27.284Z,6.49
2023-02-17T22:38:55.123Z,6.32
2023-02-17T22:41:22.993Z,6.43
2023-02-17T22:43:49.635Z,6.33
2023-02-17T22:46:18.056Z,6.45
2023-02-17T22:48:45.520Z,6.39
2023-02-17T22:51:13.937Z,6.28
2023-02-17T22:53:40.347Z,6.36
2023-02-17T22:56:07.745Z,6.29
2023-02-17T22:58:34.651Z,6.15
2023-02-17T23:01:30.320Z,6.27
2023-02-17T23:03:56.672Z,6.13
2023-02-17T23:06:24.847Z,6.16
2023-02-17T23:08:51.226Z,6.23
2023-02-17T23:11:18.549Z,6.14
2023-02-17T23:13:45.189Z,6.26
2023-02-17T23:16:19.036Z,6.25
2023-02-17T23:18:45.378Z,6.14
2023-02-17T23:21:12.844Z,6.09
2023-02-17T23:23:39.298Z,6.08
2023-02-17T23:26:06.005Z,6.01
2023-02-17T23:28:33.092Z,6.22
2023-02-17T23:30:59.463Z,6.11
2023-02-17T23:33:25.799Z,6.10
2023-02-17T23:35:52.108Z,6.14
2023-02-17T23:38:20.410Z,6.11
2023-02-17T23:40:51.087Z,6.19
2023-02-17T23:43:18.155Z,6.11
2023-02-17T23:45:44.635Z,6.07
2023-02-17T23:48:11.005Z,5.97
2023-02-17T23:50:37.325Z,6.19
2023-02-17T23:53:04.127Z,5.92
2023-02-17T23:55:30.454Z,6.02
2023-02-17T23:57:56.736Z,6.06
